Time;durP1;ratioP1;P1;durP2;ratioP2;P2;SDS_P1;SDS_P2;PMS_P1;PMS_P2;Temp;Humidity;BMP_temperature;BMP_pressure;BME280_temperature;BME280_humidity;BME280_pressure;Samples;Min_cycle;Max_cycle;Signal;HPM_P1;HPM_P2
2022/07/14 00:00:22;;;;;;;9.40;3.60;;;;;;;17.53;80.57;101032.95;1753862;82;21191;-66
2022/07/14 00:02:51;;;;;;;13.10;4.83;;;;;;;17.49;80.94;101031.92;1753935;81;21077;-66
2022/07/14 00:05:20;;;;;;;8.13;3.98;;;;;;;17.45;81.52;101026.42;1753712;82;21136;-66
2022/07/14 00:07:48;;;;;;;8.78;3.98;;;;;;;17.40;81.87;101023.19;1753906;81;21081;-64
2022/07/14 00:10:17;;;;;;;9.15;3.62;;;;;;;17.36;81.97;101016.72;1753803;82;21148;-65
2022/07/14 00:12:45;;;;;;;14.13;3.90;;;;;;;17.36;82.20;101020.71;1753932;82;21151;-65
2022/07/14 00:15:14;;;;;;;13.98;4.08;;;;;;;17.35;82.67;101023.02;1753491;81;21077;-66
2022/07/14 00:17:43;;;;;;;7.53;3.27;;;;;;;17.36;82.19;101019.87;1747625;82;21148;-66
2022/07/14 00:20:12;;;;;;;8.93;3.15;;;;;;;17.40;82.17;101016.05;1747790;82;21144;-66
2022/07/14 00:22:41;;;;;;;9.93;2.90;;;;;;;17.39;81.98;101020.98;1747788;82;21468;-65
2022/07/14 00:25:10;;;;;;;5.95;3.47;;;;;;;17.36;81.79;101016.72;1747761;82;21054;-65
2022/07/14 00:27:39;;;;;;;6.22;3.37;;;;;;;17.33;81.53;101014.73;1747997;82;21084;-66
2022/07/14 00:30:09;;;;;;;5.37;3.33;;;;;;;17.30;81.70;101025.10;1747876;82;21049;-66
2022/07/14 00:32:37;;;;;;;8.43;3.52;;;;;;;17.28;81.76;101020.36;1747885;82;21176;-66
2022/07/14 00:35:07;;;;;;;7.60;4.30;;;;;;;17.26;81.71;101026.70;1747775;81;21183;-67
2022/07/14 00:37:36;;;;;;;10.30;3.87;;;;;;;17.23;81.83;101031.76;1747836;82;21130;-66
2022/07/14 00:40:06;;;;;;;9.53;4.22;;;;;;;17.24;82.08;101029.45;1747746;82;21081;-67
2022/07/14 00:42:40;;;;;;;10.00;5.12;;;;;;;17.21;82.08;101028.34;1747741;82;21140;-67
2022/07/14 00:45:11;;;;;;;14.68;4.50;;;;;;;17.18;82.00;101025.86;1747780;82;21112;-66
2022/07/14 00:47:40;;;;;;;7.65;3.65;;;;;;;17.14;82.05;101027.01;1747874;82;21081;-67
2022/07/14 00:50:11;;;;;;;18.80;5.95;;;;;;;17.12;82.21;101027.58;1747791;82;21093;-67
2022/07/14 00:52:40;;;;;;;12.33;4.55;;;;;;;17.09;82.25;101033.08;1747885;82;21066;-67
2022/07/14 00:55:12;;;;;;;5.92;3.60;;;;;;;17.07;82.10;101033.66;1747701;81;21081;-68
2022/07/14 00:57:41;;;;;;;9.93;4.47;;;;;;;17.04;82.05;101034.71;1747914;82;21058;-66
2022/07/14 01:00:12;;;;;;;9.05;4.25;;;;;;;17.04;82.30;101033.37;1747755;82;21077;-66
2022/07/14 01:02:44;;;;;;;8.53;4.10;;;;;;;17.03;82.24;101034.80;1747839;81;21049;-66
2022/07/14 01:05:13;;;;;;;11.63;4.30;;;;;;;17.00;82.11;101037.64;1747754;82;21164;-66
2022/07/14 01:07:42;;;;;;;9.83;5.72;;;;;;;16.97;82.11;101034.70;1747785;82;21574;-67
2022/07/14 01:10:12;;;;;;;9.68;5.22;;;;;;;16.96;82.25;101033.83;1747767;82;21614;-66
2022/07/14 01:12:46;;;;;;;9.13;4.45;;;;;;;16.96;82.43;101039.63;1747770;82;21148;-66
2022/07/14 01:15:13;;;;;;;5.60;3.65;;;;;;;16.96;82.66;101042.29;1747274;82;21148;-66
2022/07/14 01:17:42;;;;;;;12.82;4.00;;;;;;;16.95;82.59;101038.78;1747857;80;21117;-67
2022/07/14 01:20:11;;;;;;;9.85;4.35;;;;;;;16.94;82.37;101040.20;1747651;81;21057;-66
2022/07/14 01:22:40;;;;;;;7.20;3.62;;;;;;;16.96;82.55;101035.64;1747973;82;21081;-67
2022/07/14 01:25:09;;;;;;;10.15;4.00;;;;;;;16.96;82.52;101040.47;1747811;82;21077;-67
2022/07/14 01:27:40;;;;;;;14.18;3.85;;;;;;;16.94;82.51;101040.20;1747808;82;21082;-67
2022/07/14 01:30:10;;;;;;;12.65;4.17;;;;;;;16.90;82.43;101038.20;1747783;82;21077;-66
2022/07/14 01:32:39;;;;;;;10.28;4.37;;;;;;;16.86;82.15;101032.69;1747801;82;21074;-66
2022/07/14 01:35:08;;;;;;;10.63;5.67;;;;;;;16.82;81.99;101035.13;1747723;81;21184;-66
2022/07/14 01:37:38;;;;;;;11.55;3.95;;;;;;;16.78;82.01;101034.91;1747737;82;21171;-66
2022/07/14 01:40:10;;;;;;;8.90;3.80;;;;;;;16.77;82.03;101035.88;1747892;81;21069;-66
2022/07/14 01:42:39;;;;;;;10.13;3.92;;;;;;;16.75;81.96;101037.78;1747878;82;21139;-66
2022/07/14 01:45:10;;;;;;;11.83;3.60;;;;;;;16.75;82.02;101029.31;1747719;82;21184;-66
2022/07/14 01:47:39;;;;;;;7.40;3.27;;;;;;;16.80;82.08;101033.02;1747716;82;21208;-66
2022/07/14 01:50:08;;;;;;;11.95;3.70;;;;;;;16.82;82.18;101033.80;1747763;82;21583;-65
2022/07/14 01:52:38;;;;;;;6.28;3.33;;;;;;;16.85;81.95;101036.77;1747509;81;21201;-66
2022/07/14 01:55:08;;;;;;;4.35;3.08;;;;;;;16.87;81.77;101034.88;1747788;82;21148;-66
2022/07/14 01:57:37;;;;;;;8.50;4.65;;;;;;;16.88;81.82;101034.78;1747832;82;21077;-67
2022/07/14 02:00:08;;;;;;;5.08;3.17;;;;;;;16.93;81.61;101038.02;1747732;82;21673;-66
2022/07/14 02:02:39;;;;;;;5.50;3.77;;;;;;;16.97;81.44;101043.53;1746018;82;21128;-66
2022/07/14 02:05:10;;;;;;;8.23;3.58;;;;;;;17.01;81.36;101039.36;1747749;82;21187;-66
2022/07/14 02:07:39;;;;;;;6.37;3.62;;;;;;;17.05;81.17;101038.22;1747537;82;21081;-66
2022/07/14 02:12:58;;;;;;;4.87;2.60;;;;;;;17.12;80.80;101048.86;1747913;82;21148;-66
2022/07/14 02:15:28;;;;;;;5.17;3.37;;;;;;;17.20;80.70;101051.05;1747847;82;21128;-67
2022/07/14 02:17:57;;;;;;;7.60;3.17;;;;;;;17.25;80.38;101053.80;1747846;81;21567;-67
2022/07/14 02:20:26;;;;;;;6.03;3.12;;;;;;;17.28;80.21;101061.60;1747747;82;21045;-67
2022/07/14 02:22:54;;;;;;;5.10;2.70;;;;;;;17.33;80.19;101062.15;1747654;82;21500;-66
2022/07/14 02:25:26;;;;;;;6.30;2.83;;;;;;;17.41;80.20;101061.70;1747625;82;21141;-67
2022/07/14 02:27:54;;;;;;;7.70;2.85;;;;;;;17.50;80.20;101062.91;1747736;82;21073;-66
2022/07/14 02:30:23;;;;;;;4.72;3.05;;;;;;;17.63;80.10;101063.86;1747740;82;21073;-66
2022/07/14 02:32:52;;;;;;;8.83;3.55;;;;;;;17.74;79.88;101068.02;1747801;82;21073;-66
2022/07/14 02:35:20;;;;;;;3.58;2.42;;;;;;;17.83;79.53;101063.89;1747636;81;21064;-66
2022/07/14 02:37:49;;;;;;;8.50;2.72;;;;;;;17.96;79.47;101073.31;1747730;82;21496;-66
2022/07/14 02:40:18;;;;;;;5.90;2.37;;;;;;;18.02;79.05;101068.06;1747691;82;21075;-66
2022/07/14 02:42:47;;;;;;;8.23;2.50;;;;;;;17.96;78.53;101071.98;1747831;82;21591;-66
2022/07/14 02:45:16;;;;;;;4.35;2.92;;;;;;;17.87;78.20;101075.23;1747823;82;21548;-66
2022/07/14 02:47:45;;;;;;;6.40;2.98;;;;;;;17.79;78.08;101078.85;1747615;81;21076;-67
2022/07/14 02:50:14;;;;;;;6.60;2.35;;;;;;;17.73;78.10;101078.28;1747752;82;21607;-67
2022/07/14 02:52:43;;;;;;;8.70;2.92;;;;;;;17.67;78.39;101073.36;1747722;82;21164;-67
2022/07/14 02:55:13;;;;;;;4.78;2.70;;;;;;;17.66;78.34;101078.77;1747736;82;21615;-67
2022/07/14 02:57:44;;;;;;;6.72;2.85;;;;;;;17.64;78.18;101078.87;1747548;82;21199;-67
2022/07/14 03:00:13;;;;;;;4.55;3.30;;;;;;;17.64;78.13;101077.53;1747636;81;21085;-67
2022/07/14 03:02:42;;;;;;;5.37;3.52;;;;;;;17.62;78.23;101076.78;1717973;82;21142;-67
2022/07/14 03:05:11;;;;;;;10.08;3.72;;;;;;;17.62;78.24;101083.92;1747698;82;21069;-67
2022/07/14 03:07:40;;;;;;;9.33;4.17;;;;;;;17.60;78.36;101080.51;1747728;82;21089;-67
2022/07/14 03:10:09;;;;;;;4.58;2.45;;;;;;;17.58;78.66;101087.25;1747720;82;21139;-67
2022/07/14 03:12:39;;;;;;;3.98;2.95;;;;;;;17.54;78.96;101087.08;1747863;81;21069;-66
2022/07/14 03:15:08;;;;;;;3.87;2.65;;;;;;;17.55;79.07;101087.44;1747668;82;21615;-66
2022/07/14 03:17:42;;;;;;;3.15;2.42;;;;;;;17.59;79.32;101086.77;1748056;81;21073;-65
2022/07/14 03:20:09;;;;;;;5.83;3.40;;;;;;;17.60;79.39;101085.34;1753388;82;21116;-63
2022/07/14 03:22:38;;;;;;;3.70;2.60;;;;;;;17.88;79.87;101100.94;1753906;82;21116;-64
2022/07/14 03:25:09;;;;;;;5.55;2.98;;;;;;;18.28;80.59;101101.02;1753052;82;21144;-65
2022/07/14 03:27:40;;;;;;;5.03;2.90;;;;;;;18.54;80.57;101095.29;1753695;82;21124;-64
2022/07/14 03:30:10;;;;;;;8.20;3.15;;;;;;;18.69;79.77;101092.06;1753866;82;21171;-64
2022/07/14 03:32:39;;;;;;;9.15;4.05;;;;;;;18.93;79.62;101096.24;1753885;82;21077;-64
2022/07/14 03:35:09;;;;;;;3.15;2.62;;;;;;;19.14;78.74;101095.23;1753839;82;21136;-65
2022/07/14 03:37:38;;;;;;;3.72;2.20;;;;;;;19.32;78.05;101094.92;1725722;82;21076;-65
2022/07/14 03:40:09;;;;;;;8.63;2.80;;;;;;;19.50;77.91;101094.11;1753677;82;22108;-65
2022/07/14 03:42:39;;;;;;;4.17;2.22;;;;;;;19.63;76.98;101094.45;1753855;82;21191;-65
2022/07/14 03:45:08;;;;;;;4.80;1.87;;;;;;;19.77;76.64;101100.64;1753803;82;21148;-65
2022/07/14 03:47:37;;;;;;;7.97;3.40;;;;;;;19.90;76.16;101101.48;1753733;82;21195;-64
2022/07/14 03:50:07;;;;;;;4.80;2.30;;;;;;;20.02;75.47;101108.58;1753871;82;21551;-65
2022/07/14 03:52:35;;;;;;;4.33;2.10;;;;;;;20.09;74.98;101110.83;1753791;81;21085;-65
2022/07/14 03:55:05;;;;;;;3.95;2.40;;;;;;;20.25;75.20;101112.25;1753849;82;21119;-64
2022/07/14 03:57:34;;;;;;;5.22;1.85;;;;;;;20.47;75.05;101115.14;1753787;82;21081;-64
2022/07/14 04:00:06;;;;;;;3.45;1.60;;;;;;;20.66;74.91;101115.50;1753712;82;21077;-66
2022/07/14 04:02:36;;;;;;;4.12;1.87;;;;;;;20.85;74.06;101112.27;1751874;82;21098;-64
2022/07/14 04:05:05;;;;;;;7.78;2.25;;;;;;;21.04;73.71;101109.02;1753671;82;21160;-65
2022/07/14 04:07:35;;;;;;;5.80;2.08;;;;;;;21.23;72.87;101114.28;1753917;82;21073;-65
2022/07/14 04:10:05;;;;;;;5.83;1.77;;;;;;;21.40;71.97;101113.83;1753742;82;21598;-65
2022/07/14 04:12:33;;;;;;;8.68;2.42;;;;;;;21.54;71.07;101114.97;1753854;81;21140;-65
2022/07/14 04:15:02;;;;;;;5.12;1.80;;;;;;;21.69;70.35;101116.03;1753754;82;21124;-64
2022/07/14 04:17:32;;;;;;;6.25;1.30;;;;;;;21.89;69.73;101118.45;1753689;82;21081;-64
2022/07/14 04:20:01;;;;;;;4.50;1.82;;;;;;;22.09;69.19;101119.52;1749278;81;21133;-65
2022/07/14 04:22:31;;;;;;;6.03;1.70;;;;;;;22.32;68.24;101126.56;1747684;82;21105;-64
2022/07/14 04:25:00;;;;;;;6.22;1.70;;;;;;;22.47;67.64;101124.44;1747655;81;21097;-64
2022/07/14 04:27:29;;;;;;;4.70;1.52;;;;;;;22.68;66.80;101118.25;1747693;82;21097;-64
2022/07/14 04:29:59;;;;;;;2.00;1.47;;;;;;;22.90;66.19;101117.28;1747571;82;21215;-65
2022/07/14 04:32:28;;;;;;;5.33;1.35;;;;;;;23.18;65.90;101118.97;1747870;82;21527;-64
2022/07/14 04:34:56;;;;;;;3.47;1.45;;;;;;;23.54;66.00;101115.41;1747653;82;21062;-64
2022/07/14 04:37:26;;;;;;;2.10;1.20;;;;;;;23.88;65.45;101120.00;1747704;82;21038;-64
2022/07/14 04:39:56;;;;;;;2.80;1.07;;;;;;;24.04;62.43;101118.14;1747752;82;21077;-65
2022/07/14 04:42:25;;;;;;;1.82;0.98;;;;;;;24.17;62.09;101117.38;1747551;81;21077;-65
2022/07/14 04:44:54;;;;;;;1.98;1.25;;;;;;;24.42;61.77;101124.55;1747709;82;21219;-64
2022/07/14 04:47:23;;;;;;;3.95;1.32;;;;;;;24.69;60.63;101131.95;1747662;82;21555;-64
2022/07/14 04:52:50;;;;;;;3.00;1.25;;;;;;;24.94;58.80;101131.03;1747103;82;21153;-64
2022/07/14 04:55:36;;;;;;;3.75;1.15;;;;;;;25.05;58.74;101122.27;1720154;83;21120;-65
2022/07/14 04:58:09;;;;;;;2.37;1.05;;;;;;;25.29;58.49;101120.98;1738722;82;21154;-64
2022/07/14 05:00:40;;;;;;;2.77;0.90;;;;;;;25.65;58.74;101127.84;1747731;82;21207;-64
2022/07/14 05:03:09;;;;;;;3.42;1.62;;;;;;;25.90;56.91;101124.13;1747759;82;21168;-65
2022/07/14 05:05:37;;;;;;;2.20;0.80;;;;;;;26.16;57.07;101119.71;1747781;82;21074;-64
2022/07/14 05:08:06;;;;;;;1.55;1.22;;;;;;;26.56;56.81;101121.12;1747831;82;21101;-64
2022/07/14 05:10:36;;;;;;;1.87;0.85;;;;;;;26.89;56.20;101125.48;1745936;82;21196;-64
2022/07/14 05:13:05;;;;;;;1.10;0.82;;;;;;;27.19;55.55;101121.96;1747887;82;21140;-65
2022/07/14 05:15:34;;;;;;;4.12;0.90;;;;;;;27.54;55.46;101118.80;1747770;82;21152;-65
2022/07/14 05:18:04;;;;;;;1.67;0.70;;;;;;;27.95;54.94;101119.50;1747551;81;21212;-65
2022/07/14 05:20:32;;;;;;;3.22;0.90;;;;;;;28.35;54.28;101121.45;1751310;81;21105;-64
2022/07/14 05:23:01;;;;;;;3.08;0.80;;;;;;;28.52;51.33;101120.12;1753963;82;21069;-64
2022/07/14 05:25:31;;;;;;;1.70;0.90;;;;;;;28.42;49.97;101125.19;1753840;82;21176;-64
2022/07/14 05:27:59;;;;;;;1.50;0.78;;;;;;;28.39;47.35;101117.39;1753870;82;21104;-64
2022/07/14 05:30:30;;;;;;;3.12;0.80;;;;;;;28.54;48.54;101115.41;1752820;82;21100;-65
2022/07/14 05:32:59;;;;;;;1.62;0.80;;;;;;;28.82;48.03;101114.03;1753855;82;21598;-65
2022/07/14 05:35:29;;;;;;;1.00;0.88;;;;;;;28.93;46.89;101109.29;1753984;82;21575;-64
2022/07/14 05:38:01;;;;;;;1.40;0.80;;;;;;;28.95;45.17;101109.95;1753870;82;21176;-65
2022/07/14 05:40:29;;;;;;;1.00;0.80;;;;;;;28.93;45.39;101115.55;1753856;82;21212;-65
2022/07/14 05:42:58;;;;;;;2.72;0.70;;;;;;;29.10;45.70;101106.03;1753730;81;21065;-65
2022/07/14 05:45:28;;;;;;;2.22;0.70;;;;;;;29.33;45.08;101105.67;1753908;82;21515;-65
2022/07/14 05:47:56;;;;;;;1.20;0.60;;;;;;;29.31;43.87;101098.23;1753849;82;21057;-64
2022/07/14 05:50:25;;;;;;;2.42;0.60;;;;;;;29.35;43.38;101098.73;1754059;82;21163;-64
2022/07/14 05:52:54;;;;;;;1.87;0.95;;;;;;;29.62;43.86;101092.85;1753865;82;21069;-64
2022/07/14 05:55:23;;;;;;;1.10;0.53;;;;;;;29.85;43.68;101093.45;1753818;82;21069;-65
2022/07/14 05:57:53;;;;;;;1.57;0.70;;;;;;;30.08;43.05;101092.62;1753816;81;21203;-65
2022/07/14 06:00:22;;;;;;;1.07;0.75;;;;;;;30.18;42.35;101093.25;1753825;82;21061;-64
2022/07/14 06:02:51;;;;;;;1.90;0.72;;;;;;;30.34;41.69;101093.66;1753814;82;21559;-64
2022/07/14 06:05:21;;;;;;;1.75;1.00;;;;;;;30.19;40.20;101090.84;1753413;82;21207;-64
2022/07/14 06:07:49;;;;;;;3.55;1.25;;;;;;;30.27;40.84;101088.09;1753913;82;21116;-65
2022/07/14 06:10:18;;;;;;;1.02;0.72;;;;;;;30.48;41.01;101090.67;1753919;82;21176;-65
2022/07/14 06:12:48;;;;;;;2.95;0.98;;;;;;;30.74;41.39;101079.40;1753869;82;21613;-65
2022/07/14 06:15:18;;;;;;;1.57;0.70;;;;;;;30.94;40.96;101082.47;1753960;82;21544;-65
2022/07/14 06:17:47;;;;;;;2.15;0.70;;;;;;;31.17;40.94;101078.30;1753932;82;21195;-65
2022/07/14 06:20:16;;;;;;;0.90;0.80;;;;;;;31.46;40.15;101081.52;1752881;81;21089;-64
2022/07/14 06:22:45;;;;;;;1.02;0.70;;;;;;;31.58;39.95;101085.15;1747729;81;21267;-65
2022/07/14 06:25:14;;;;;;;1.77;0.78;;;;;;;31.76;39.88;101084.22;1747731;82;21096;-64
2022/07/14 06:27:43;;;;;;;1.72;0.75;;;;;;;31.89;39.78;101077.59;1747824;82;21484;-65
2022/07/14 06:30:13;;;;;;;0.93;0.70;;;;;;;32.04;38.69;101078.07;1747703;82;21630;-65
2022/07/14 06:32:42;;;;;;;3.20;0.80;;;;;;;32.16;38.87;101077.06;1747851;81;21132;-64
2022/07/14 06:35:13;;;;;;;0.78;0.78;;;;;;;32.25;38.21;101080.81;1747286;81;21584;-64
2022/07/14 06:37:42;;;;;;;3.50;0.68;;;;;;;32.41;38.42;101088.42;1747817;82;21578;-64
2022/07/14 06:40:12;;;;;;;1.52;0.80;;;;;;;32.46;37.99;101085.92;1747851;82;21176;-64
2022/07/14 06:42:42;;;;;;;0.70;0.70;;;;;;;32.52;37.89;101083.80;1747127;81;21133;-64
2022/07/14 06:45:16;;;;;;;0.62;0.60;;;;;;;32.73;37.86;101082.94;1745562;81;21204;-64
2022/07/14 06:47:46;;;;;;;1.20;0.72;;;;;;;32.90;37.29;101075.13;1747602;82;21485;-64
2022/07/14 06:50:15;;;;;;;1.40;0.70;;;;;;;32.81;37.15;101075.13;1747722;82;21156;-64
2022/07/14 06:52:43;;;;;;;1.85;0.93;;;;;;;33.08;37.54;101087.91;1747767;82;21073;-64
2022/07/14 06:55:12;;;;;;;1.60;0.80;;;;;;;32.90;37.46;101083.48;1747717;82;21144;-65
2022/07/14 06:57:41;;;;;;;1.57;0.70;;;;;;;32.73;37.06;101076.66;1747746;82;21155;-64
2022/07/14 07:00:10;;;;;;;4.45;0.80;;;;;;;32.70;37.24;101074.65;1747619;81;21049;-65
2022/07/14 07:02:40;;;;;;;2.58;0.70;;;;;;;32.28;37.49;101076.34;1747705;82;21101;-64
2022/07/14 07:08:00;;;;;;;2.10;1.22;;;;;;;31.73;36.89;101071.02;1747678;82;21098;-64
2022/07/14 07:10:29;;;;;;;1.15;1.05;;;;;;;31.44;36.75;101072.70;1747653;82;21089;-65
2022/07/14 07:12:59;;;;;;;1.07;0.80;;;;;;;30.68;37.50;101079.62;1747942;82;21148;-64
2022/07/14 07:15:28;;;;;;;1.87;1.20;;;;;;;30.82;36.62;101077.11;1747795;82;21504;-64
2022/07/14 07:17:56;;;;;;;1.62;0.90;;;;;;;30.94;36.35;101077.03;1747720;82;21085;-65
2022/07/14 07:20:25;;;;;;;1.00;0.90;;;;;;;31.14;36.70;101076.80;1747698;82;21516;-64
2022/07/14 07:22:54;;;;;;;1.90;1.20;;;;;;;31.59;37.21;101068.63;1753328;81;21117;-65
2022/07/14 07:25:23;;;;;;;1.20;0.70;;;;;;;32.04;36.83;101068.05;1753843;82;21069;-64
2022/07/14 07:27:51;;;;;;;1.10;0.88;;;;;;;32.09;37.03;101071.03;1753800;82;21168;-65
2022/07/14 07:30:20;;;;;;;1.30;0.90;;;;;;;32.55;36.89;101075.20;1753818;82;21108;-64
2022/07/14 07:32:50;;;;;;;1.65;0.93;;;;;;;32.81;36.46;101070.55;1754005;82;21504;-65
2022/07/14 07:35:19;;;;;;;2.55;1.00;;;;;;;32.40;36.73;101077.18;1753819;82;21563;-65
2022/07/14 07:37:48;;;;;;;1.40;1.00;;;;;;;31.90;36.88;101071.09;1753815;82;21077;-64
2022/07/14 07:40:17;;;;;;;3.40;1.10;;;;;;;31.13;37.11;101071.06;1753825;82;21069;-64
2022/07/14 07:42:46;;;;;;;3.45;1.05;;;;;;;30.67;37.55;101065.69;1753791;82;21065;-64
2022/07/14 07:45:14;;;;;;;1.57;1.00;;;;;;;30.88;36.94;101064.16;1753836;82;21069;-65
2022/07/14 07:47:43;;;;;;;2.55;0.98;;;;;;;31.23;36.57;101067.21;1754007;82;21500;-65
2022/07/14 07:50:12;;;;;;;3.50;1.10;;;;;;;31.05;36.74;101071.66;1753720;82;21073;-67
2022/07/14 07:52:41;;;;;;;1.80;0.98;;;;;;;31.55;36.10;101065.45;1753907;82;21505;-64
2022/07/14 07:55:11;;;;;;;3.37;0.90;;;;;;;31.81;35.63;101060.00;1753826;81;21155;-65
2022/07/14 07:57:39;;;;;;;2.27;1.25;;;;;;;32.26;35.14;101060.72;1753888;82;21562;-64
2022/07/14 08:00:09;;;;;;;2.15;1.00;;;;;;;32.48;34.58;101055.23;1753828;82;21065;-64
2022/07/14 08:02:48;;;;;;;2.60;1.00;;;;;;;32.56;34.38;101060.55;1753758;82;21171;-65
2022/07/14 08:05:27;;;;;;;2.77;1.07;;;;;;;33.04;35.10;101062.08;1753899;82;21041;-64
2022/07/14 08:07:56;;;;;;;1.70;0.95;;;;;;;33.38;34.59;101059.02;1753783;82;21183;-64
2022/07/14 08:10:25;;;;;;;1.77;0.95;;;;;;;32.78;35.03;101058.66;1753751;82;21524;-64
2022/07/14 08:12:54;;;;;;;1.42;1.00;;;;;;;31.98;35.66;101050.23;1753878;82;21520;-64
2022/07/14 08:15:24;;;;;;;0.90;0.90;;;;;;;31.98;35.66;101050.23;1753694;82;21053;-64
2022/07/14 08:17:53;;;;;;;4.22;1.40;;;;;;;31.06;35.81;101062.45;1753885;82;21155;-64
2022/07/14 08:20:22;;;;;;;2.08;1.10;;;;;;;30.43;36.80;101068.64;1753777;82;21152;-64
2022/07/14 08:22:51;;;;;;;3.00;0.90;;;;;;;31.17;36.75;101065.56;1753855;81;21555;-64
2022/07/14 08:25:20;;;;;;;1.62;1.00;;;;;;;31.98;36.49;101056.51;1753774;82;21072;-65
2022/07/14 08:27:49;;;;;;;5.70;2.22;;;;;;;32.51;35.70;101056.20;1753656;82;21077;-64
2022/07/14 08:30:18;;;;;;;1.05;0.90;;;;;;;33.04;35.20;101057.98;1753777;82;21139;-64
2022/07/14 08:32:50;;;;;;;1.40;1.10;;;;;;;33.53;34.45;101055.31;1753766;81;21173;-64
2022/07/14 08:35:21;;;;;;;1.37;0.90;;;;;;;33.90;33.49;101054.01;1753889;82;21049;-64
2022/07/14 08:37:50;;;;;;;3.35;0.98;;;;;;;33.02;31.38;101042.34;1753881;82;21077;-65
2022/07/14 08:40:22;;;;;;;1.95;1.00;;;;;;;33.02;31.38;101042.34;1753770;82;21187;-64
2022/07/14 08:42:53;;;;;;;1.90;0.90;;;;;;;32.95;31.80;101061.08;1753846;82;21072;-64
2022/07/14 08:45:25;;;;;;;1.77;0.70;;;;;;;33.18;32.14;101048.53;1753995;82;21187;-65
2022/07/14 08:47:55;;;;;;;1.17;0.90;;;;;;;33.11;31.80;101048.48;1754097;82;21140;-65
2022/07/14 08:50:26;;;;;;;2.37;0.98;;;;;;;32.80;31.60;101051.12;1753839;82;21532;-64
2022/07/14 08:52:55;;;;;;;3.05;0.90;;;;;;;32.72;31.27;101047.69;1753767;81;21140;-65
2022/07/14 08:55:23;;;;;;;4.33;0.93;;;;;;;32.14;31.32;101048.64;1753863;82;21143;-64
2022/07/14 08:57:52;;;;;;;1.85;1.00;;;;;;;31.64;32.91;101054.47;1753870;82;21587;-64
2022/07/14 09:00:20;;;;;;;4.67;1.10;;;;;;;31.25;33.39;101055.62;1753886;82;21073;-64
2022/07/14 09:02:55;;;;;;;1.15;0.98;;;;;;;30.84;33.93;101053.30;1753868;82;21159;-64
2022/07/14 09:05:24;;;;;;;2.62;0.80;;;;;;;31.16;33.82;101049.42;1753761;81;21073;-64
2022/07/14 09:07:56;;;;;;;1.60;0.95;;;;;;;30.95;33.83;101048.30;1753886;82;21112;-64
2022/07/14 09:10:27;;;;;;;3.17;0.70;;;;;;;31.12;33.63;101054.39;1753956;82;21077;-64
2022/07/14 09:13:17;;;;;;;1.60;0.90;;;;;;;30.83;33.03;101055.71;1753958;82;21105;-64
2022/07/14 09:15:48;;;;;;;1.57;0.82;;;;;;;31.03;33.22;101050.61;1752121;82;21088;-64
2022/07/14 09:18:28;;;;;;;0.88;0.85;;;;;;;31.68;33.03;101036.19;1753840;82;21426;-64
2022/07/14 09:20:58;;;;;;;5.50;1.02;;;;;;;31.81;32.75;101046.91;1753950;82;21049;-64
2022/07/14 09:23:35;;;;;;;4.20;0.95;;;;;;;31.83;32.92;101053.00;1750654;81;21540;-65
2022/07/14 09:26:17;;;;;;;3.37;1.00;;;;;;;32.33;32.08;101037.60;1747722;82;21152;-65
2022/07/14 09:28:46;;;;;;;;;;;;;;;32.72;32.10;101046.33;1750455;82;21519;-65
2022/07/14 09:31:26;;;;;;;0.80;0.80;;;;;;;32.95;31.79;101041.45;1747747;82;20385;-64
2022/07/14 09:34:01;;;;;;;2.27;0.90;;;;;;;32.38;31.89;101051.48;1744094;82;21073;-64
2022/07/14 09:36:32;;;;;;;1.40;1.00;;;;;;;31.61;31.32;101043.95;1747685;82;21049;-65
2022/07/14 09:39:09;;;;;;;2.45;0.90;;;;;;;31.44;31.52;101040.06;1747414;82;21599;-64
2022/07/14 09:41:49;;;;;;;1.30;0.72;;;;;;;31.55;32.38;101048.29;1747816;82;21065;-64
2022/07/14 09:44:20;;;;;;;2.80;0.80;;;;;;;32.05;32.16;101043.01;1747784;82;21093;-65
2022/07/14 09:46:53;;;;;;;3.00;0.98;;;;;;;32.24;31.01;101036.92;1747771;81;21148;-65
2022/07/14 09:49:25;;;;;;;0.98;0.88;;;;;;;32.24;30.93;101036.92;1747868;82;21073;-65
2022/07/14 09:51:57;;;;;;;0.93;0.72;;;;;;;32.54;31.07;101038.11;1747850;82;21074;-65
2022/07/14 09:54:39;;;;;;;3.83;0.90;;;;;;;32.76;30.97;101039.43;1747990;82;21073;-65
2022/07/14 09:57:09;;;;;;;3.58;0.80;;;;;;;32.59;30.51;101037.03;1739031;82;21520;-65
2022/07/14 09:59:49;;;;;;;3.05;0.80;;;;;;;32.48;30.39;101037.02;1747806;82;21081;-65
2022/07/14 10:02:29;;;;;;;1.10;0.80;;;;;;;32.19;31.19;101033.93;1747819;82;21527;-65
2022/07/14 10:05:05;;;;;;;0.90;0.70;;;;;;;32.45;31.66;101039.30;1747769;82;21586;-65
2022/07/14 10:07:38;;;;;;;0.70;0.70;;;;;;;32.68;32.01;101038.56;1747741;81;21175;-65
2022/07/14 10:10:13;;;;;;;2.85;1.02;;;;;;;32.68;31.28;101030.89;1747682;82;21160;-65
2022/07/14 10:12:43;;;;;;;5.08;0.60;;;;;;;32.47;30.94;101033.13;1747702;82;21089;-65
2022/07/14 10:15:13;;;;;;;0.50;0.50;;;;;;;32.26;31.23;101038.92;1747743;81;21548;-66
2022/07/14 10:17:43;;;;;;;1.30;0.85;;;;;;;32.39;31.74;101040.92;1747864;81;21416;-65
2022/07/14 10:20:15;;;;;;;4.70;0.80;;;;;;;32.63;31.77;101023.85;1747713;82;21159;-66
2022/07/14 10:22:46;;;;;;;1.60;0.80;;;;;;;32.53;31.69;101035.05;1747839;82;21147;-66
2022/07/14 10:25:15;;;;;;;1.72;0.60;;;;;;;32.34;30.80;101031.66;1747628;81;21109;-66
2022/07/14 10:27:46;;;;;;;1.22;0.80;;;;;;;32.16;31.64;101045.20;1747824;82;21536;-65
2022/07/14 10:30:15;;;;;;;1.20;0.80;;;;;;;32.13;31.68;101042.36;1747798;82;21579;-65
2022/07/14 10:33:07;;;;;;;1.40;0.80;;;;;;;31.77;31.86;101046.45;1747738;82;21078;-65
2022/07/14 10:35:53;;;;;;;1.32;0.60;;;;;;;31.15;32.22;101045.88;1747607;82;21144;-65
2022/07/14 10:38:40;;;;;;;3.33;0.90;;;;;;;30.55;32.80;101047.64;1747491;82;21178;-65
2022/07/14 10:41:27;;;;;;;2.80;0.80;;;;;;;30.20;33.25;101051.30;1747607;81;21161;-66
2022/07/14 10:43:59;;;;;;;2.00;0.80;;;;;;;29.93;34.02;101051.31;1747641;82;21054;-65
2022/07/14 10:46:45;;;;;;;2.15;0.80;;;;;;;29.88;34.26;101051.02;1747744;82;21622;-66
2022/07/14 10:49:15;;;;;;;7.47;1.00;;;;;;;30.24;34.44;101049.06;1747871;82;21188;-65
2022/07/14 10:51:50;;;;;;;3.05;0.78;;;;;;;30.37;34.32;101049.31;1747697;82;21077;-66
2022/07/14 10:54:30;;;;;;;0.85;0.70;;;;;;;30.35;34.20;101052.73;1747808;82;21453;-65
2022/07/14 10:57:11;;;;;;;4.58;0.70;;;;;;;30.29;34.18;101053.44;1747800;82;21081;-65
2022/07/14 10:59:41;;;;;;;3.60;0.90;;;;;;;30.33;34.04;101053.43;1738862;82;21073;-66
2022/07/14 11:02:16;;;;;;;2.37;0.80;;;;;;;30.33;33.75;101052.08;1747598;82;21073;-65
2022/07/14 11:05:03;;;;;;;2.15;0.70;;;;;;;30.10;33.25;101056.63;1747676;82;21109;-65
2022/07/14 11:07:44;;;;;;;1.85;0.93;;;;;;;29.65;33.03;101065.34;1747804;82;21128;-65
2022/07/14 11:10:24;;;;;;;1.15;0.75;;;;;;;29.43;33.49;101055.28;1747802;82;21211;-65
2022/07/14 11:13:07;;;;;;;2.25;0.80;;;;;;;29.30;33.97;101052.30;1747684;82;21144;-65
2022/07/14 11:15:47;;;;;;;0.72;0.50;;;;;;;29.14;33.40;101044.56;1747825;81;21082;-65
2022/07/14 11:18:26;;;;;;;1.75;0.60;;;;;;;28.92;33.56;101050.18;1747713;82;21097;-65
2022/07/14 11:21:06;;;;;;;3.52;0.60;;;;;;;28.77;33.19;101049.17;1747625;82;21160;-66
2022/07/14 11:23:50;;;;;;;3.72;0.70;;;;;;;28.59;33.75;101049.35;1746705;82;21049;-66
2022/07/14 11:26:47;;;;;;;0.98;0.55;;;;;;;28.34;34.48;101047.98;1747677;82;21082;-65
2022/07/14 11:29:14;;;;;;;0.60;0.60;;;;;;;28.33;35.26;101046.31;1747251;82;21524;-66
2022/07/14 11:31:50;;;;;;;2.98;0.75;;;;;;;28.30;35.20;101052.05;1747697;82;21049;-65
2022/07/14 11:37:13;;;;;;;1.95;0.70;;;;;;;28.28;35.52;101055.44;1747725;81;21062;-65
2022/07/14 11:39:47;;;;;;;1.80;0.60;;;;;;;28.25;35.69;101049.00;1747653;82;21096;-65
2022/07/14 11:42:17;;;;;;;0.80;0.70;;;;;;;28.36;35.79;101045.95;1747723;82;21101;-65
2022/07/14 11:44:51;;;;;;;1.65;0.70;;;;;;;28.50;35.83;101048.50;1747772;82;21152;-65
2022/07/14 11:47:22;;;;;;;1.82;0.90;;;;;;;28.37;36.02;101051.72;1747717;81;21073;-65
2022/07/14 11:50:07;;;;;;;1.67;0.70;;;;;;;28.30;36.08;101044.77;1747657;82;21101;-65
2022/07/14 11:52:38;;;;;;;0.88;0.60;;;;;;;28.23;36.41;101041.55;1747699;82;21147;-65